createdAt,value
2018-12-13T00:00:46.985Z,45.87
2018-12-13T00:03:18.430Z,49.47
2018-12-13T00:05:50.679Z,46.60
2018-12-13T00:08:21.824Z,44.17
2018-12-13T00:10:52.961Z,43.90
2018-12-13T00:13:24.396Z,44.53
2018-12-13T00:15:55.760Z,48.10
2018-12-13T00:18:26.787Z,46.70
2018-12-13T00:20:58.056Z,46.10
2018-12-13T00:23:29.195Z,46.50
2018-12-13T00:26:00.620Z,47.90
2018-12-13T00:28:31.839Z,43.20
2018-12-13T00:31:03.427Z,47.90
2018-12-13T00:33:34.787Z,43.20
2018-12-13T00:36:06.748Z,45.93
2018-12-13T00:38:37.717Z,43.57
2018-12-13T00:41:08.588Z,49.50
2018-12-13T00:43:39.597Z,52.13
2018-12-13T00:46:10.201Z,48.87
2018-12-13T00:48:40.804Z,47.10
2018-12-13T00:51:11.606Z,46.77
2018-12-13T00:53:42.511Z,48.53
2018-12-13T00:56:14.297Z,45.40
2018-12-13T00:58:45.191Z,44.90
2018-12-13T01:01:16.582Z,46.27
2018-12-13T01:03:47.825Z,43.80
2018-12-13T01:06:19.692Z,45.57
2018-12-13T01:08:50.764Z,46.80
2018-12-13T01:11:21.711Z,46.10
2018-12-13T01:13:52.206Z,51.60
2018-12-13T01:16:24.716Z,49.10
2018-12-13T01:18:55.888Z,50.37
2018-12-13T01:21:26.826Z,47.20
2018-12-13T01:23:58.853Z,46.87
2018-12-13T01:26:29.297Z,46.13
2018-12-13T01:29:00.245Z,49.67
2018-12-13T01:31:31.469Z,46.50
2018-12-13T01:34:02.300Z,45.77
2018-12-13T01:36:32.920Z,44.90
2018-12-13T01:39:05.158Z,46.93
2018-12-13T01:41:36.596Z,48.87
2018-12-13T01:44:07.916Z,48.17
2018-12-13T01:46:38.889Z,46.90
2018-12-13T01:49:10.066Z,44.70
2018-12-13T01:51:41.398Z,46.87
2018-12-13T01:54:12.742Z,47.70
2018-12-13T01:56:44.011Z,43.10
2018-12-13T01:59:16.154Z,46.07
2018-12-13T02:01:47.700Z,44.57
2018-12-13T02:04:18.904Z,43.90
2018-12-13T02:06:50.062Z,44.07
2018-12-13T02:09:21.019Z,45.50
2018-12-13T02:11:51.817Z,43.77
2018-12-13T02:14:22.480Z,44.73
2018-12-13T02:16:54.456Z,46.13
2018-12-13T02:19:25.319Z,45.23
2018-12-13T02:21:56.891Z,45.87
2018-12-13T02:24:27.621Z,47.93
2018-12-13T02:26:58.080Z,46.63
2018-12-13T02:29:28.783Z,48.13
2018-12-13T02:31:59.837Z,45.93
2018-12-13T02:34:30.519Z,41.10
2018-12-13T02:37:06.100Z,43.27
2018-12-13T02:39:33.503Z,43.67
2018-12-13T02:42:04.548Z,47.93
2018-12-13T02:44:35.547Z,42.17
2018-12-13T02:47:05.705Z,43.40
2018-12-13T02:49:36.407Z,42.87
2018-12-13T02:52:08.434Z,44.97
2018-12-13T02:54:40.095Z,39.90
2018-12-13T02:57:12.081Z,43.93
2018-12-13T02:59:44.152Z,45.80
2018-12-13T03:02:15.065Z,44.10
2018-12-13T03:04:47.238Z,41.50
2018-12-13T03:07:18.176Z,43.40
2018-12-13T03:09:49.863Z,43.67
2018-12-13T03:12:21.080Z,41.90
2018-12-13T03:14:52.201Z,44.70
2018-12-13T03:17:24.083Z,42.80
2018-12-13T03:19:55.888Z,44.33
2018-12-13T03:22:27.310Z,44.47
2018-12-13T03:24:59.282Z,45.63
2018-12-13T03:27:31.156Z,42.80
2018-12-13T03:30:02.220Z,40.60
2018-12-13T03:32:33.155Z,42.37
2018-12-13T03:35:05.159Z,43.17
2018-12-13T03:37:36.483Z,46.73
2018-12-13T03:40:07.462Z,43.37
2018-12-13T03:42:40.130Z,42.10
2018-12-13T03:45:11.558Z,42.47
2018-12-13T03:47:42.777Z,39.30
2018-12-13T03:50:14.149Z,41.83
2018-12-13T03:52:46.765Z,42.87
2018-12-13T03:55:18.248Z,41.60
2018-12-13T03:57:49.597Z,44.83
2018-12-13T04:00:20.724Z,43.50
2018-12-13T04:02:51.760Z,42.80
2018-12-13T04:05:23.774Z,42.60
2018-12-13T04:07:54.976Z,44.50
2018-12-13T04:10:26.252Z,43.77
2018-12-13T04:12:57.180Z,45.03
2018-12-13T04:15:28.811Z,45.30
2018-12-13T04:18:00.749Z,45.57
2018-12-13T04:20:31.328Z,46.40
2018-12-13T04:23:03.441Z,41.57
2018-12-13T04:25:34.336Z,45.63
2018-12-13T04:28:06.851Z,43.63
2018-12-13T04:30:38.002Z,47.30
2018-12-13T04:33:09.091Z,44.53
2018-12-13T04:35:41.254Z,46.53
2018-12-13T04:38:12.862Z,47.07
2018-12-13T04:40:45.087Z,47.73
2018-12-13T04:43:16.665Z,46.40
2018-12-13T04:45:48.205Z,45.57
2018-12-13T04:48:19.773Z,45.57
2018-12-13T04:50:51.155Z,45.83
2018-12-13T04:53:22.316Z,46.37
2018-12-13T04:55:53.739Z,45.03
2018-12-13T04:58:24.916Z,46.80
2018-12-13T05:00:57.062Z,44.67
2018-12-13T05:03:27.804Z,48.70
2018-12-13T05:05:59.438Z,45.60
2018-12-13T05:08:31.239Z,45.47
2018-12-13T05:11:02.638Z,45.00
2018-12-13T05:13:33.638Z,46.17
2018-12-13T05:16:05.475Z,44.40
2018-12-13T05:18:36.899Z,44.40
2018-12-13T05:21:08.238Z,46.20
2018-12-13T05:23:39.000Z,47.07
2018-12-13T05:26:10.340Z,47.63
2018-12-13T05:28:42.012Z,49.30
2018-12-13T05:31:14.020Z,51.67
2018-12-13T05:33:45.196Z,47.70
2018-12-13T05:36:17.319Z,46.77
2018-12-13T05:38:48.196Z,50.10
2018-12-13T05:41:20.490Z,48.93
2018-12-13T05:43:55.032Z,54.67
2018-12-13T05:46:26.289Z,51.70
2018-12-13T05:48:57.718Z,53.60
2018-12-13T05:51:29.744Z,49.90
2018-12-13T05:54:01.369Z,48.40
2018-12-13T05:56:32.411Z,52.73
2018-12-13T05:59:03.067Z,50.50
2018-12-13T06:01:34.591Z,50.87
2018-12-13T06:04:05.684Z,49.70
2018-12-13T06:06:37.525Z,47.83
2018-12-13T06:09:09.637Z,46.83
2018-12-13T06:11:41.224Z,48.70
2018-12-13T06:14:12.284Z,47.23
2018-12-13T06:16:43.631Z,46.67
2018-12-13T06:19:17.194Z,46.90
2018-12-13T06:21:48.340Z,48.97
2018-12-13T06:24:19.838Z,46.90
2018-12-13T06:26:51.613Z,48.60
2018-12-13T06:29:23.804Z,47.70
2018-12-13T06:31:55.398Z,46.73
2018-12-13T06:34:26.968Z,47.07
2018-12-13T06:36:58.704Z,50.13
2018-12-13T06:39:29.522Z,54.17
2018-12-13T06:42:00.674Z,48.70
2018-12-13T06:44:32.346Z,49.23
2018-12-13T06:47:03.547Z,50.87
2018-12-13T06:49:34.972Z,46.80
2018-12-13T06:52:07.372Z,51.10
2018-12-13T06:54:38.409Z,50.80
2018-12-13T06:57:10.103Z,49.30
2018-12-13T06:59:41.088Z,50.77
2018-12-13T07:02:14.916Z,53.93
2018-12-13T07:04:45.840Z,55.07
2018-12-13T07:07:17.228Z,53.10
2018-12-13T07:09:48.594Z,51.37
2018-12-13T07:12:19.455Z,57.10
2018-12-13T07:14:51.090Z,51.47
2018-12-13T07:17:22.197Z,51.77
2018-12-13T07:19:53.791Z,48.87
2018-12-13T07:22:25.841Z,50.67
2018-12-13T07:24:57.340Z,54.20
2018-12-13T07:27:28.407Z,51.40
2018-12-13T07:29:59.721Z,50.33
2018-12-13T07:32:31.566Z,50.87
2018-12-13T07:35:02.833Z,49.60
2018-12-13T07:37:34.165Z,48.40
2018-12-13T07:40:05.834Z,50.87
2018-12-13T07:42:37.407Z,45.60
2018-12-13T07:45:09.198Z,49.30
2018-12-13T07:47:40.545Z,51.67
2018-12-13T07:50:12.302Z,48.50
2018-12-13T07:52:45.200Z,53.10
2018-12-13T07:55:16.763Z,56.30
2018-12-13T07:57:54.464Z,54.37
2018-12-13T08:00:30.246Z,55.63
2018-12-13T08:03:03.504Z,56.00
2018-12-13T08:05:35.200Z,55.10
2018-12-13T08:08:07.738Z,54.87
2018-12-13T08:10:49.353Z,57.00
2018-12-13T08:13:20.868Z,58.13
2018-12-13T08:15:58.114Z,52.17
2018-12-13T08:18:34.175Z,57.43
2018-12-13T08:21:07.301Z,58.43
2018-12-13T08:23:39.163Z,54.57
2018-12-13T08:26:12.979Z,56.63
2018-12-13T08:28:43.944Z,53.07
2018-12-13T08:31:15.327Z,51.13
2018-12-13T08:33:47.174Z,50.97
2018-12-13T08:36:19.383Z,50.00
2018-12-13T08:38:49.967Z,55.87
2018-12-13T08:41:21.416Z,54.67
2018-12-13T08:43:52.768Z,49.53
2018-12-13T08:46:28.577Z,49.67
2018-12-13T08:49:01.118Z,47.30
2018-12-13T08:51:33.839Z,46.27
2018-12-13T08:54:06.587Z,46.63
2018-12-13T08:56:38.257Z,47.30
2018-12-13T08:59:09.459Z,48.80
2018-12-13T09:01:44.002Z,46.30
2018-12-13T09:04:15.479Z,45.57
2018-12-13T09:06:47.543Z,45.03
2018-12-13T09:09:21.462Z,45.47
2018-12-13T09:11:55.399Z,46.27
2018-12-13T09:14:30.881Z,47.10
2018-12-13T09:17:02.271Z,47.87
2018-12-13T09:19:36.929Z,43.77
2018-12-13T09:22:08.241Z,47.10
2018-12-13T09:24:42.436Z,46.80
2018-12-13T09:27:18.090Z,45.90
2018-12-13T09:29:50.825Z,45.10
2018-12-13T09:32:22.228Z,46.40
2018-12-13T09:35:02.494Z,43.90
2018-12-13T09:37:33.557Z,46.10
2018-12-13T09:40:06.956Z,42.90
2018-12-13T09:42:40.349Z,48.03
2018-12-13T09:45:11.394Z,46.47
2018-12-13T09:47:43.069Z,45.43
2018-12-13T09:50:14.906Z,47.23
2018-12-13T09:52:46.652Z,45.53
2018-12-13T09:55:18.818Z,47.53
2018-12-13T09:57:49.966Z,48.57
2018-12-13T10:00:21.687Z,47.90
2018-12-13T10:02:53.548Z,44.40
2018-12-13T10:05:25.973Z,45.27
2018-12-13T10:07:56.652Z,45.17
2018-12-13T10:10:28.122Z,50.40
2018-12-13T10:12:59.718Z,45.97
2018-12-13T10:15:32.155Z,45.20
2018-12-13T10:18:03.870Z,41.10
2018-12-13T10:20:37.005Z,43.23
2018-12-13T10:23:12.380Z,42.50
2018-12-13T10:25:43.544Z,44.03
2018-12-13T10:28:15.435Z,43.87
2018-12-13T10:30:46.923Z,40.80
2018-12-13T10:33:18.149Z,39.67
2018-12-13T10:35:50.285Z,39.57
2018-12-13T10:38:21.470Z,41.37
2018-12-13T10:40:52.033Z,36.97
2018-12-13T10:43:23.086Z,37.80
2018-12-13T10:45:54.328Z,37.50
2018-12-13T10:48:27.704Z,40.73
2018-12-13T10:51:00.263Z,37.67
2018-12-13T10:53:32.063Z,39.70
2018-12-13T10:56:03.886Z,39.77
2018-12-13T10:58:35.667Z,39.47
2018-12-13T11:01:11.576Z,40.00
2018-12-13T11:03:44.159Z,39.17
2018-12-13T11:06:15.805Z,39.77
2018-12-13T11:08:47.562Z,37.67
2018-12-13T11:11:18.633Z,38.97
2018-12-13T11:13:50.175Z,36.87
2018-12-13T11:16:21.795Z,41.77
2018-12-13T11:18:53.251Z,38.30
2018-12-13T11:21:24.230Z,41.37
2018-12-13T11:23:55.594Z,39.60
2018-12-13T11:26:26.590Z,38.13
2018-12-13T11:29:17.001Z,37.33
2018-12-13T11:31:48.135Z,37.17
2018-12-13T11:34:18.954Z,36.67
2018-12-13T11:36:50.853Z,36.40
2018-12-13T11:39:22.271Z,38.03
2018-12-13T11:41:54.755Z,38.20
2018-12-13T11:44:26.921Z,39.57
2018-12-13T11:46:57.982Z,36.27
2018-12-13T11:49:28.932Z,35.77
2018-12-13T11:51:59.762Z,34.23
2018-12-13T11:54:44.338Z,37.70
2018-12-13T11:57:16.037Z,35.90
2018-12-13T11:59:47.406Z,35.37
2018-12-13T12:02:24.018Z,38.47
2018-12-13T12:04:53.309Z,35.80
2018-12-13T12:07:24.996Z,36.70
2018-12-13T12:09:57.164Z,36.60
2018-12-13T12:12:28.245Z,36.47
2018-12-13T12:14:59.595Z,35.70
2018-12-13T12:17:32.398Z,37.60
2018-12-13T12:20:03.410Z,34.87
2018-12-13T12:22:35.716Z,35.10
2018-12-13T12:25:08.010Z,40.00
2018-12-13T12:27:39.643Z,37.27
2018-12-13T12:30:11.384Z,29.10
2018-12-13T12:32:43.753Z,33.77
2018-12-13T12:35:15.955Z,31.00
2018-12-13T12:37:47.713Z,28.03
2018-12-13T12:40:19.999Z,25.07
2018-12-13T12:42:51.333Z,25.37
2018-12-13T12:45:22.963Z,26.50
2018-12-13T12:47:54.167Z,27.40
2018-12-13T12:50:25.304Z,27.93
2018-12-13T12:52:56.755Z,25.83
2018-12-13T12:55:28.707Z,24.83
2018-12-13T12:58:00.672Z,23.77
2018-12-13T13:00:31.937Z,50.37
2018-12-13T13:03:04.793Z,33.87
2018-12-13T13:05:37.409Z,29.00
2018-12-13T13:08:08.824Z,27.53
2018-12-13T13:10:40.815Z,24.93
2018-12-13T13:13:12.225Z,25.20
2018-12-13T13:15:43.875Z,26.87
2018-12-13T13:18:15.333Z,26.80
2018-12-13T13:20:46.923Z,29.30
2018-12-13T13:23:17.898Z,26.50
2018-12-13T13:25:49.503Z,28.37
2018-12-13T13:28:20.954Z,26.47
2018-12-13T13:30:53.004Z,26.13
2018-12-13T13:33:23.766Z,26.50
2018-12-13T13:35:57.459Z,28.57
2018-12-13T13:38:28.698Z,45.30
2018-12-13T13:41:00.270Z,37.60
2018-12-13T13:43:31.015Z,28.20
2018-12-13T13:46:02.368Z,25.90
2018-12-13T13:48:33.801Z,29.50
2018-12-13T13:51:05.172Z,28.30
2018-12-13T13:53:36.842Z,28.87
2018-12-13T13:56:08.115Z,27.80
2018-12-13T13:58:39.800Z,27.63
2018-12-13T14:01:10.564Z,27.90
2018-12-13T14:03:41.487Z,41.07
2018-12-13T14:06:12.723Z,38.67
2018-12-13T14:08:43.443Z,38.67
2018-12-13T14:11:14.766Z,30.60
2018-12-13T14:13:45.719Z,28.13
2018-12-13T14:16:17.324Z,35.47
2018-12-13T14:18:48.276Z,51.43
2018-12-13T14:21:19.259Z,48.77
2018-12-13T14:23:50.290Z,46.43
2018-12-13T14:26:21.971Z,58.93
2018-12-13T14:28:53.801Z,64.60
2018-12-13T14:31:40.524Z,52.20
2018-12-13T14:34:11.752Z,53.27
2018-12-13T14:36:43.218Z,90.07
2018-12-13T14:39:14.629Z,86.37
2018-12-13T14:41:46.410Z,64.40
2018-12-13T14:44:18.378Z,48.07
2018-12-13T14:46:49.802Z,50.00
2018-12-13T14:49:22.405Z,39.37
2018-12-13T14:51:55.052Z,44.27
2018-12-13T14:54:26.363Z,39.10
2018-12-13T14:56:57.687Z,37.80
2018-12-13T14:59:30.076Z,46.60
2018-12-13T15:02:01.173Z,42.07
2018-12-13T15:04:32.852Z,52.00
2018-12-13T15:07:04.399Z,58.20
2018-12-13T15:09:36.090Z,42.27
2018-12-13T15:12:07.141Z,41.90
2018-12-13T15:14:38.441Z,44.53
2018-12-13T15:17:09.539Z,41.63
2018-12-13T15:19:41.655Z,43.83
2018-12-13T15:22:13.323Z,46.50
2018-12-13T15:24:45.284Z,35.70
2018-12-13T15:27:16.373Z,40.47
2018-12-13T15:29:48.295Z,46.40
2018-12-13T15:32:20.796Z,40.60
2018-12-13T15:34:52.604Z,51.87
2018-12-13T15:37:24.476Z,51.13
2018-12-13T15:39:57.427Z,58.20
2018-12-13T15:42:29.321Z,44.93
2018-12-13T15:45:00.454Z,44.67
2018-12-13T15:47:31.816Z,46.77
2018-12-13T15:50:04.013Z,52.37
2018-12-13T15:52:36.402Z,44.90
2018-12-13T15:55:11.161Z,52.43
2018-12-13T15:57:43.429Z,55.83
2018-12-13T16:00:15.660Z,70.80
2018-12-13T16:02:47.380Z,58.20
2018-12-13T16:05:19.159Z,43.90
2018-12-13T16:07:50.996Z,48.13
2018-12-13T16:10:23.167Z,40.33
2018-12-13T16:12:55.962Z,38.00
2018-12-13T16:15:27.884Z,37.70
2018-12-13T16:17:59.546Z,37.23
2018-12-13T16:20:31.151Z,47.67
2018-12-13T16:23:02.997Z,40.83
2018-12-13T16:25:35.066Z,41.40
2018-12-13T16:28:06.921Z,33.93
2018-12-13T16:30:38.605Z,34.57
2018-12-13T16:33:10.809Z,32.83
2018-12-13T16:35:42.281Z,38.00
2018-12-13T16:38:13.924Z,48.00
2018-12-13T16:40:46.511Z,39.77
2018-12-13T16:43:18.045Z,45.17
2018-12-13T16:45:50.183Z,53.23
2018-12-13T16:48:21.957Z,54.73
2018-12-13T16:50:54.457Z,40.47
2018-12-13T16:53:26.779Z,47.70
2018-12-13T16:55:58.932Z,50.90
2018-12-13T16:58:31.450Z,45.67
2018-12-13T17:01:04.491Z,51.80
2018-12-13T17:03:43.785Z,49.83
2018-12-13T17:06:15.893Z,52.30
2018-12-13T17:08:48.827Z,40.97
2018-12-13T17:11:21.554Z,49.17
2018-12-13T17:13:53.968Z,37.30
2018-12-13T17:16:26.882Z,40.60
2018-12-13T17:18:58.160Z,37.07
2018-12-13T17:21:29.991Z,37.70
2018-12-13T17:24:02.738Z,48.90
2018-12-13T17:26:34.761Z,44.83
2018-12-13T17:29:07.494Z,62.00
2018-12-13T17:31:39.727Z,47.17
2018-12-13T17:34:12.368Z,43.27
2018-12-13T17:36:44.245Z,43.93
2018-12-13T17:39:16.046Z,38.93
2018-12-13T17:41:48.365Z,41.07
2018-12-13T17:44:20.559Z,41.50
2018-12-13T17:46:53.279Z,41.83
2018-12-13T17:49:26.041Z,37.77
2018-12-13T17:51:59.770Z,40.50
2018-12-13T18:05:47.988Z,55.90
2018-12-13T18:08:19.071Z,49.23
2018-12-13T18:10:50.534Z,44.10
2018-12-13T18:13:20.819Z,47.10
2018-12-13T18:15:51.325Z,54.83
2018-12-13T18:18:23.588Z,55.53
2018-12-13T18:20:55.267Z,49.53
2018-12-13T18:23:28.147Z,43.10
2018-12-13T18:25:59.077Z,42.20
2018-12-13T18:28:30.517Z,37.13
2018-12-13T18:31:01.989Z,47.03
2018-12-13T18:33:33.657Z,45.63
2018-12-13T18:36:04.952Z,56.83
2018-12-13T18:38:38.591Z,47.97
2018-12-13T18:41:11.028Z,42.47
2018-12-13T18:43:42.135Z,41.30
2018-12-13T18:46:13.815Z,43.07
2018-12-13T18:48:47.024Z,39.80
2018-12-13T18:51:18.600Z,42.80
2018-12-13T18:53:50.636Z,36.57
2018-12-13T18:56:22.840Z,40.40
2018-12-13T18:58:54.577Z,43.40
2018-12-13T19:01:26.303Z,39.07
2018-12-13T19:03:58.801Z,40.07
2018-12-13T19:06:30.410Z,46.57
2018-12-13T19:09:01.086Z,42.57
2018-12-13T19:11:33.858Z,39.80
2018-12-13T19:14:04.977Z,47.33
2018-12-13T19:16:35.612Z,43.70
2018-12-13T19:19:06.790Z,46.43
2018-12-13T19:21:38.194Z,54.67
2018-12-13T19:24:10.468Z,45.03
2018-12-13T19:26:42.887Z,35.83
2018-12-13T19:29:14.431Z,44.17
2018-12-13T19:31:46.932Z,37.23
2018-12-13T19:34:19.453Z,41.10
2018-12-13T19:36:51.003Z,44.80
2018-12-13T19:39:24.089Z,38.27
2018-12-13T19:41:55.512Z,41.13
2018-12-13T19:44:26.877Z,37.87
2018-12-13T19:46:57.900Z,37.87
2018-12-13T19:49:30.817Z,35.20
2018-12-13T19:52:02.250Z,32.83
2018-12-13T19:54:33.708Z,35.07
2018-12-13T19:57:07.845Z,39.70
2018-12-13T20:02:23.195Z,33.10
2018-12-13T20:04:54.447Z,33.27
2018-12-13T20:07:33.880Z,36.30
2018-12-13T20:10:04.709Z,37.50
2018-12-13T20:12:35.578Z,32.50
2018-12-13T20:15:07.059Z,33.20
2018-12-13T20:17:37.429Z,35.30
2018-12-13T20:20:08.698Z,34.73
2018-12-13T20:22:39.107Z,31.50
2018-12-13T20:25:09.968Z,33.03
2018-12-13T20:27:41.599Z,34.00
2018-12-13T20:30:12.163Z,32.33
2018-12-13T20:32:43.098Z,30.10
2018-12-13T20:35:14.861Z,36.83
2018-12-13T20:37:46.218Z,38.73
2018-12-13T20:40:16.247Z,39.33
2018-12-13T20:42:46.949Z,43.00
2018-12-13T20:45:17.659Z,37.30
2018-12-13T20:47:50.115Z,44.60
2018-12-13T20:50:21.480Z,49.83
2018-12-13T20:52:52.167Z,41.53
2018-12-13T20:55:24.194Z,40.40
2018-12-13T20:57:55.668Z,46.40
2018-12-13T21:00:26.152Z,38.33
2018-12-13T21:02:57.122Z,37.00
2018-12-13T21:05:27.710Z,33.33
2018-12-13T21:08:03.060Z,35.40
2018-12-13T21:10:34.190Z,33.93
2018-12-13T21:13:04.945Z,35.53
2018-12-13T21:15:35.240Z,37.90
2018-12-13T21:18:06.088Z,41.40
2018-12-13T21:20:38.139Z,44.27
2018-12-13T21:23:08.711Z,39.60
2018-12-13T21:25:39.438Z,35.77
2018-12-13T21:28:12.072Z,33.70
2018-12-13T21:30:43.957Z,34.00
2018-12-13T21:33:14.932Z,35.23
2018-12-13T21:35:52.217Z,35.07
2018-12-13T21:38:22.930Z,35.93
2018-12-13T21:40:53.611Z,39.37
2018-12-13T21:43:23.865Z,42.87
2018-12-13T21:45:54.365Z,37.17
2018-12-13T21:48:24.428Z,36.57
2018-12-13T21:50:54.419Z,35.90
2018-12-13T21:53:25.000Z,35.93
2018-12-13T21:55:55.500Z,37.40
2018-12-13T21:58:26.380Z,43.63
2018-12-13T22:00:56.565Z,37.50
2018-12-13T22:03:27.273Z,37.10
2018-12-13T22:05:57.874Z,37.57
2018-12-13T22:08:28.951Z,39.00
2018-12-13T22:10:59.316Z,39.10
2018-12-13T22:13:30.381Z,34.70
2018-12-13T22:16:00.889Z,36.50
2018-12-13T22:18:31.435Z,34.83
2018-12-13T22:21:01.949Z,35.20
2018-12-13T22:23:32.300Z,35.23
2018-12-13T22:26:01.947Z,35.37
2018-12-13T22:28:32.399Z,35.73
2018-12-13T22:31:02.869Z,35.80
2018-12-13T22:33:32.767Z,35.13
2018-12-13T22:36:02.566Z,37.60
2018-12-13T22:38:32.201Z,34.27
2018-12-13T22:41:02.139Z,35.80
2018-12-13T22:43:32.309Z,35.63
2018-12-13T22:46:04.674Z,35.40
2018-12-13T22:48:35.329Z,37.83
2018-12-13T22:51:05.104Z,37.57
2018-12-13T22:53:35.226Z,35.13
2018-12-13T22:56:05.546Z,36.37
2018-12-13T22:58:35.248Z,35.50
2018-12-13T23:01:05.041Z,36.63
2018-12-13T23:03:36.192Z,39.37
2018-12-13T23:06:06.531Z,35.37
2018-12-13T23:08:36.511Z,39.70
2018-12-13T23:11:06.978Z,35.57
2018-12-13T23:13:37.105Z,35.43
2018-12-13T23:16:07.063Z,41.60
2018-12-13T23:18:37.293Z,35.13
2018-12-13T23:21:06.779Z,37.10
2018-12-13T23:23:36.467Z,39.23
2018-12-13T23:26:06.424Z,36.70
2018-12-13T23:28:35.700Z,37.57
2018-12-13T23:31:05.973Z,41.17
2018-12-13T23:33:36.366Z,37.87
2018-12-13T23:36:06.425Z,34.80
2018-12-13T23:38:36.739Z,37.47
2018-12-13T23:41:06.708Z,41.40
2018-12-13T23:43:37.014Z,36.40
2018-12-13T23:46:07.072Z,35.60
2018-12-13T23:48:36.897Z,38.80
2018-12-13T23:51:06.696Z,36.17
2018-12-13T23:53:37.016Z,36.70
2018-12-13T23:56:07.263Z,37.47
2018-12-13T23:58:37.496Z,35.00
